Ariton, Alabama
Current Conditions -  °F | °C
As of 2:53 AM on Wednesday 28 Jan 2015 (Local Time) from KLOR Reporting Station
Haze Haze  
Wind Chill: 25°   Ceiling: Unl
Heat Index: 31°   Visibility: 4mi
Dew Point: 29°   Wind: 6mph
Humidity: 92%   Direction: 30°NNE
Pressure: 30.17"   Gusts: NA
Location:  31.6°N, 85.72°W
Report Text: KLOR 280853Z AUTO 03005KT 4SM BR CLR M01/M02 A3017 RMK AO2 SLP216 I1000 I3000 T10061017 53016
Loading
Personal Weather Stations






























Interactive Weather Map New forecast layout! Learn more

10-Day Weather Forecast

Advertisements
Track Severe Weather on mobile